Kugler, Minnesota
Current Conditions -  °F | °C
As of 2:14 PM on Wednesday 26 Nov 2014 (Local Time) from KCQM Reporting Station
Broken Clouds Broken Clouds  
Wind Chill: -2°   Ceiling: 2700
Heat Index: 10°   Visibility: 10mi
Dew Point:   Wind: 8mph
Humidity: 67%   Direction: 320°NW
Pressure: 30.24"   Gusts: NA
Location:  47.7992°N, 92.3042°W
Report Text: KCQM 262014Z AUTO 32007KT 10SM BKN027 M12/M17 A3024 RMK AO2
Loading
Personal Weather Stations






























Interactive Weather Map New forecast layout! Learn more

10-Day Weather Forecast

Advertisements
Track Severe Weather on mobile